バンジュール の空港の天気 - METARとTAF

バンジュール国際空港 ( GBYD / BJL ) - ガンビア バンジュール
飛行場実況気象(Metar)
観測時間07/17 08:00 GMT (07/17 08:00 UTC)
風向・風速- -
視程10km以上
天気現象
なし
気温26℃
湿度79%
気圧1014hPa
METARGBYD 170800Z VRBO1KT CAVOK 26/22 Q1014
過去の天気等 Google飛行場航空写真 Wunderground天気予報

過去48時間のMETAR

飛行場予報(TAF)
発表時間: 7/17 05:30 GMT (7/17 05:30 UTC)
予報対象時間: 17日6時 GMT ~ 18日12時 GMT
風向・風速西南西 4m/s
視程10km以上
全天の4割程度の雲 雲底高度 370m
17日18時 GMT ~ 17日24時 GMT に 確率 40% で一時的に
視程4500m
天気現象雷雨
全天の8割程度の雲 雲底高度 340m
少しの積乱雲 雲底高度 550m
TAF GBYD 170530Z 1706/1812 25007KT 9999 SCT012
PROB40 TEMPO 1718/1724 4500 TSRA BKN011 FEW018CB